Time;durP1;ratioP1;P1;durP2;ratioP2;P2;SDS_P1;SDS_P2;PMS_P1;PMS_P2;Temp;Humidity;BMP_temperature;BMP_pressure;BME280_temperature;BME280_humidity;BME280_pressure;Samples;Min_cycle;Max_cycle;Signal;HPM_P1;HPM_P2
2023/05/30 00:00:53;;;;;;;;;27.33;22.67;;;;;16.15;100.00;99526.22;6283239;20;3581543;-60
2023/05/30 00:03:22;;;;;;;;;29.00;28.00;;;;;16.01;100.00;99522.03;6280782;20;3601350;-61
2023/05/30 00:05:51;;;;;;;;;24.00;24.00;;;;;16.12;100.00;99523.78;6283117;20;3598285;-60
2023/05/30 00:08:20;;;;;;;;;26.33;25.00;;;;;15.98;100.00;99522.25;6280822;20;2850430;-59
2023/05/30 00:10:48;;;;;;;;;27.67;25.00;;;;;15.88;100.00;99530.34;6315263;20;3587769;-60
2023/05/30 00:13:19;;;;;;;;;30.00;28.67;;;;;15.76;100.00;99523.25;6282157;20;3590909;-59
2023/05/30 00:15:49;;;;;;;;;30.00;27.00;;;;;15.67;100.00;99524.03;6281638;20;2860803;-61
2023/05/30 00:18:17;;;;;;;;;30.33;28.00;;;;;15.33;100.00;99526.88;6314757;20;3596077;-58
2023/05/30 00:20:47;;;;;;;;;29.67;29.33;;;;;15.74;100.00;99520.69;6284430;20;3590885;-60
2023/05/30 00:23:15;;;;;;;;;25.67;25.67;;;;;15.81;100.00;99515.59;6280888;20;3590890;-60
2023/05/30 00:25:45;;;;;;;;;28.00;26.67;;;;;15.49;100.00;99521.91;6281072;20;3588975;-60
2023/05/30 00:28:13;;;;;;;;;32.00;23.33;;;;;15.75;100.00;99525.13;6310395;20;3610709;-60
2023/05/30 00:30:42;;;;;;;;;25.67;25.33;;;;;15.60;100.00;99515.56;6280105;20;3581750;-59
2023/05/30 00:33:10;;;;;;;;;35.67;32.00;;;;;15.53;100.00;99517.94;6280188;20;3588843;-60
2023/05/30 00:35:38;;;;;;;;;31.33;29.00;;;;;15.57;100.00;99513.97;6281600;20;3578406;-59
2023/05/30 00:38:07;;;;;;;;;30.33;24.00;;;;;15.78;100.00;99515.88;6280296;20;3589933;-59
2023/05/30 00:40:35;;;;;;;;;27.00;24.67;;;;;15.88;100.00;99515.94;6283538;20;3595054;-61
2023/05/30 00:43:03;;;;;;;;;28.33;26.00;;;;;16.09;100.00;99521.31;6282316;20;3616960;-60
2023/05/30 00:45:31;;;;;;;;;29.33;25.33;;;;;15.94;100.00;99520.81;6280662;20;3605493;-60
2023/05/30 00:48:00;;;;;;;;;25.33;24.00;;;;;15.83;100.00;99518.19;6282642;20;3583580;-61
2023/05/30 00:50:30;;;;;;;;;28.33;24.33;;;;;16.07;99.52;99526.03;6280642;20;3594003;-60
2023/05/30 00:53:00;;;;;;;;;29.00;23.67;;;;;15.94;99.63;99524.38;6276289;20;3590868;-58
2023/05/30 00:55:29;;;;;;;;;29.00;24.33;;;;;15.94;100.00;99520.81;6311256;20;3598286;-61
2023/05/30 00:57:57;;;;;;;;;26.33;23.67;;;;;15.97;99.86;99524.13;6282184;20;3577484;-60
2023/05/30 01:00:26;;;;;;;;;28.33;25.00;;;;;15.83;100.00;99519.06;6273180;20;3591950;-59
2023/05/30 01:02:59;;;;;;;;;25.33;25.33;;;;;15.81;100.00;99529.16;6308196;20;3600494;-58
2023/05/30 01:05:29;;;;;;;;;26.00;24.33;;;;;15.63;100.00;99523.41;6279759;20;2854597;-59
2023/05/30 01:07:58;;;;;;;;;28.67;26.33;;;;;15.80;100.00;99525.59;6311253;20;3594129;-61
2023/05/30 01:10:30;;;;;;;;;27.67;25.67;;;;;15.79;100.00;99526.56;6277569;20;2850296;-58
2023/05/30 01:13:28;;;;;;;;;25.00;23.50;;;;;15.84;100.00;99526.16;6315592;20;2846242;-56
2023/05/30 01:16:13;;;;;;;;;29.67;26.00;;;;;15.87;100.00;99523.19;6284654;20;3599329;-61
2023/05/30 01:19:12;;;;;;;;;28.67;28.33;;;;;15.83;100.00;99529.88;6285741;20;3606492;-59
2023/05/30 01:21:43;;;;;;;;;31.00;26.00;;;;;15.88;100.00;99527.63;6285583;20;3597124;-58
2023/05/30 01:24:36;;;;;;;;;28.33;27.67;;;;;15.78;100.00;99524.84;6284340;20;3589987;-59
2023/05/30 01:27:26;;;;;;;;;31.33;26.00;;;;;15.87;100.00;99517.78;6283356;20;3590040;-60
2023/05/30 01:29:56;;;;;;;;;25.00;23.67;;;;;15.77;100.00;99520.44;6281828;20;2847245;-60
2023/05/30 01:32:25;;;;;;;;;29.33;25.67;;;;;15.91;100.00;99516.53;6316799;20;3599251;-60
2023/05/30 01:34:57;;;;;;;;;24.33;24.00;;;;;15.79;100.00;99518.44;6286003;20;3587792;-59
2023/05/30 01:37:25;;;;;;;;;26.00;25.00;;;;;15.66;100.00;99516.88;6284449;20;2837755;-59
2023/05/30 01:39:54;;;;;;;;;26.67;26.00;;;;;15.74;100.00;99523.38;6284749;20;3599349;-59
2023/05/30 01:42:23;;;;;;;;;29.33;24.33;;;;;15.54;100.00;99519.66;6282086;20;3589972;-59
2023/05/30 01:45:19;;;;;;;;;28.00;25.00;;;;;15.67;100.00;99524.03;6281658;20;3586710;-60
2023/05/30 01:47:58;;;;;;;;;27.67;26.00;;;;;15.61;100.00;99529.94;6279346;20;3602351;-57
2023/05/30 01:50:39;;;;;;;;;28.67;27.67;;;;;15.31;100.00;99523.44;6280747;20;3614847;-58
2023/05/30 01:53:14;;;;;;;;;29.00;23.33;;;;;15.40;100.00;99533.47;6279410;20;3578610;-58
2023/05/30 01:55:44;;;;;;;;;27.33;27.33;;;;;15.37;100.00;99529.19;6277544;20;3600373;-59
2023/05/30 01:58:18;;;;;;;;;32.00;27.00;;;;;15.43;100.00;99524.25;6313241;20;3598419;-59
2023/05/30 02:00:47;;;;;;;;;29.33;27.00;;;;;15.38;100.00;99516.53;6283495;20;3606598;-59
2023/05/30 02:03:16;;;;;;;;;24.33;23.33;;;;;15.39;100.00;99520.09;6281565;20;3583601;-60
2023/05/30 02:05:44;;;;;;;;;29.33;25.67;;;;;15.22;100.00;99518.78;6285646;20;3605492;-57
2023/05/30 02:08:13;;;;;;;;;29.00;25.00;;;;;15.27;100.00;99513.84;6285189;20;3595172;-60
2023/05/30 02:10:41;;;;;;;;;27.33;24.67;;;;;15.06;100.00;99521.91;6316870;20;3585670;-59
2023/05/30 02:13:10;;;;;;;;;29.67;25.33;;;;;15.19;100.00;99519.06;6286354;20;3606490;-59
2023/05/30 02:15:38;;;;;;;;;27.33;26.67;;;;;15.28;100.00;99513.75;6287362;20;3592958;-59
2023/05/30 02:18:08;;;;;;;;;25.00;24.33;;;;;15.20;100.00;99509.97;6284329;20;2848285;-59
2023/05/30 02:20:36;;;;;;;;;33.00;26.67;;;;;15.16;100.00;99514.75;6317382;20;3608660;-57
2023/05/30 02:23:04;;;;;;;;;28.33;26.67;;;;;15.07;100.00;99516.38;6284974;20;3587759;-59
2023/05/30 02:25:33;;;;;;;;;31.00;26.00;;;;;15.04;100.00;99513.94;6283694;20;3606530;-56
2023/05/30 02:28:01;;;;;;;;;25.00;24.00;;;;;15.14;100.00;99511.34;6284089;20;2723186;-56
2023/05/30 02:30:29;;;;;;;;;25.00;22.33;;;;;14.89;100.00;99513.34;6315957;20;3579413;-56
2023/05/30 02:32:57;;;;;;;;;26.00;23.50;;;;;15.18;100.00;99511.94;6283508;20;2840928;-57
2023/05/30 02:35:26;;;;;;;;;30.00;24.00;;;;;15.01;100.00;99511.50;6282026;20;3598356;-58
2023/05/30 02:37:55;;;;;;;;;28.00;26.67;;;;;14.84;100.00;99514.72;6317601;20;3601319;-58
2023/05/30 02:40:24;;;;;;;;;28.33;27.00;;;;;14.92;100.00;99514.94;6281443;20;2854580;-60
2023/05/30 02:42:52;;;;;;;;;28.00;25.67;;;;;14.94;100.00;99515.69;6316833;20;3580478;-59
2023/05/30 02:45:20;;;;;;;;;30.00;25.67;;;;;14.86;100.00;99518.16;6285762;20;3589844;-59
2023/05/30 02:47:49;;;;;;;;;24.67;24.67;;;;;15.17;100.00;99516.50;6283413;20;3596091;-60
2023/05/30 02:50:20;;;;;;;;;27.63;23.75;;;;;15.09;100.00;99505.47;6303613;20;3594070;-58
2023/05/30 02:52:49;;;;;;;;;28.33;27.00;;;;;15.00;100.00;99515.16;6285914;20;3590973;-58
2023/05/30 02:55:17;;;;;;;;;29.33;27.33;;;;;14.95;100.00;99511.13;6284949;20;3593354;-58
2023/05/30 02:57:45;;;;;;;;;28.67;28.67;;;;;14.52;100.00;99510.06;6286796;20;3606500;-55
2023/05/30 03:00:14;;;;;;;;;25.67;24.00;;;;;14.65;100.00;99509.97;6281733;20;3594089;-55
2023/05/30 03:02:42;;;;;;;;;29.00;26.67;;;;;14.64;100.00;99511.81;6285811;20;3600383;-56
2023/05/30 03:05:12;;;;;;;;;32.00;26.33;;;;;14.71;100.00;99510.31;6282685;20;3604518;-59
2023/05/30 03:07:40;;;;;;;;;26.67;26.00;;;;;14.71;100.00;99510.31;6315990;20;3587721;-59
2023/05/30 03:10:09;;;;;;;;;28.33;27.67;;;;;14.73;100.00;99517.44;6281250;20;3605589;-57
2023/05/30 03:12:38;;;;;;;;;30.00;29.33;;;;;14.73;100.00;99515.59;6279124;20;2837001;-56
2023/05/30 03:15:07;;;;;;;;;28.67;27.67;;;;;14.82;100.00;99516.69;6314561;20;3587781;-59
2023/05/30 03:17:38;;;;;;;;;29.67;28.33;;;;;14.92;100.00;99517.66;6282668;20;3585770;-58
2023/05/30 03:20:08;;;;;;;;;33.00;31.00;;;;;14.78;100.00;99520.63;6312161;20;3588801;-59
2023/05/30 03:22:36;;;;;;;;;29.00;26.67;;;;;14.61;100.00;99525.59;6285328;20;3596214;-56
2023/05/30 03:25:05;;;;;;;;;31.33;26.00;;;;;14.85;100.00;99520.00;6284158;20;3612846;-57
2023/05/30 03:27:34;;;;;;;;;27.67;27.67;;;;;14.49;100.00;99521.97;6283691;20;3604835;-59
2023/05/30 03:30:04;;;;;;;;;32.00;30.00;;;;;14.55;100.00;99520.66;6281768;20;3586710;-56
2023/05/30 03:32:33;;;;;;;;;34.33;29.33;;;;;14.65;100.00;99527.03;6279276;20;2843295;-60
2023/05/30 03:35:02;;;;;;;;;33.33;29.67;;;;;14.67;100.00;99533.19;6312644;20;3600355;-58
2023/05/30 03:37:30;;;;;;;;;28.00;27.67;;;;;14.73;100.00;99531.81;6284680;20;3595056;-58
2023/05/30 03:39:57;;;;;;;;;33.00;29.00;;;;;14.88;100.00;99540.53;6284267;20;2637800;-55
2023/05/30 03:42:26;;;;;;;;;26.67;25.00;;;;;14.85;100.00;99535.34;6283044;20;3596207;-60
2023/05/30 03:44:54;;;;;;;;;31.33;28.33;;;;;14.67;100.00;99538.59;6282647;20;3586859;-59
2023/05/30 03:47:22;;;;;;;;;29.33;27.00;;;;;14.74;100.00;99548.88;6284003;20;3594011;-57
2023/05/30 03:49:52;;;;;;;;;27.67;24.67;;;;;14.69;100.00;99544.72;6279098;20;3586798;-59
2023/05/30 03:52:23;;;;;;;;;27.00;27.00;;;;;14.38;100.00;99557.09;6315937;20;3592998;-58
2023/05/30 03:54:51;;;;;;;;;28.33;24.33;;;;;14.24;100.00;99555.50;6279983;20;3590949;-57
2023/05/30 03:57:20;;;;;;;;;25.50;25.00;;;;;14.60;100.00;99558.97;6283003;20;2844184;-59
2023/05/30 03:59:48;;;;;;;;;30.00;27.67;;;;;14.69;100.00;99555.53;6278535;20;3608733;-59
2023/05/30 04:02:16;;;;;;;;;34.00;30.33;;;;;14.79;100.00;99558.34;6279152;20;3602501;-58
2023/05/30 04:04:45;;;;;;;;;30.00;28.67;;;;;15.04;100.00;99559.91;6285146;20;3608633;-56
2023/05/30 04:07:15;;;;;;;;;27.00;24.67;;;;;15.20;100.00;99559.50;6284911;20;3598196;-58
2023/05/30 04:09:42;;;;;;;;;30.00;29.00;;;;;15.36;100.00;99564.50;6277274;20;2508616;-60
2023/05/30 04:12:11;;;;;;;;;26.33;24.00;;;;;15.59;100.00;99571.53;6277976;20;3583561;-57
2023/05/30 04:14:39;;;;;;;;;23.00;22.33;;;;;15.76;99.16;99566.56;6282853;20;3583665;-60
2023/05/30 04:17:07;;;;;;;;;25.00;23.50;;;;;15.77;98.45;99571.88;6282346;20;3468011;-60
2023/05/30 04:19:35;;;;;;;;;25.67;22.00;;;;;15.82;99.07;99576.88;6310241;20;3589891;-58
2023/05/30 04:22:05;;;;;;;;;24.00;24.00;;;;;15.86;100.00;99572.06;6280464;20;2853404;-59
2023/05/30 04:24:33;;;;;;;;;27.67;23.67;;;;;16.11;97.92;99574.38;6313173;20;3588808;-60
2023/05/30 04:27:02;;;;;;;;;23.00;23.00;;;;;16.41;95.92;99578.13;6280604;20;3566013;-59
2023/05/30 04:29:30;;;;;;;;;21.50;21.50;;;;;16.48;94.35;99575.72;6276572;20;2845038;-59
2023/05/30 04:31:58;;;;;;;;;23.50;21.00;;;;;16.53;94.92;99576.19;6278865;20;2642093;-58
2023/05/30 04:34:27;;;;;;;;;20.33;19.00;;;;;16.63;95.23;99583.38;6313842;20;3564884;-58
2023/05/30 04:36:56;;;;;;;;;23.00;19.00;;;;;16.96;92.20;99583.25;6275887;20;2839883;-60
2023/05/30 04:39:24;;;;;;;;;19.67;19.67;;;;;16.97;91.24;99593.09;6280367;20;3575305;-60
2023/05/30 04:41:54;;;;;;;;;24.33;21.00;;;;;16.84;92.14;99591.47;6311569;20;3578379;-60
2023/05/30 04:44:23;;;;;;;;;21.00;20.00;;;;;16.69;91.91;99598.22;6281337;20;3584090;-55
2023/05/30 04:46:51;;;;;;;;;17.00;15.00;;;;;16.65;93.53;99591.38;6284195;20;3558586;-59
2023/05/30 04:49:19;;;;;;;;;19.00;19.00;;;;;16.67;94.95;99595.66;6283011;20;2829427;-58
2023/05/30 04:51:47;;;;;;;;;19.00;18.50;;;;;16.73;93.85;99598.84;6283555;20;2833618;-58
2023/05/30 04:54:16;;;;;;;;;18.67;18.67;;;;;16.89;93.53;99605.50;6283774;20;2844195;-57
2023/05/30 04:56:44;;;;;;;;;18.00;18.00;;;;;17.12;93.61;99597.16;6316280;20;3576475;-57
2023/05/30 04:59:13;;;;;;;;;18.00;16.00;;;;;17.12;91.17;99599.88;6282776;20;2827371;-60
2023/05/30 05:01:42;;;;;;;;;18.50;14.00;;;;;17.34;90.79;99594.19;6281156;20;2825310;-58
2023/05/30 05:04:11;;;;;;;;;20.33;17.00;;;;;17.30;90.10;99602.78;6286779;20;2829442;-59
2023/05/30 05:06:39;;;;;;;;;21.00;20.00;;;;;17.68;88.53;99604.66;6316905;20;3573162;-60
2023/05/30 05:09:10;;;;;;;;;23.67;22.33;;;;;17.83;89.38;99607.00;6282360;20;2841140;-60
2023/05/30 05:11:39;;;;;;;;;33.33;29.00;;;;;18.03;90.15;99608.69;6314937;20;3621086;-60
2023/05/30 05:14:07;;;;;;;;;25.67;24.33;;;;;17.99;90.84;99607.28;6280966;20;3589939;-60
2023/05/30 05:16:35;;;;;;;;;22.67;22.00;;;;;18.20;91.59;99613.41;6285386;20;3577466;-60
2023/05/30 05:19:04;;;;;;;;;22.33;18.67;;;;;18.11;93.01;99613.41;6286309;20;3586071;-55
2023/05/30 05:21:32;;;;;;;;;24.33;22.67;;;;;18.13;92.56;99616.84;6287826;20;3594035;-60
2023/05/30 05:24:00;;;;;;;;;31.67;25.33;;;;;18.27;91.18;99619.09;6288959;20;3602376;-58
2023/05/30 05:26:29;;;;;;;;;25.33;22.00;;;;;18.49;90.16;99611.66;6287593;20;3570092;-58
2023/05/30 05:28:58;;;;;;;;;25.33;24.33;;;;;18.28;91.31;99620.84;6283568;20;3583770;-56
2023/05/30 05:31:27;;;;;;;;;20.33;19.00;;;;;18.27;91.04;99620.97;6284379;20;2846175;-58
2023/05/30 05:33:55;;;;;;;;;26.00;21.67;;;;;18.41;90.97;99625.97;6321406;20;3583665;-60
2023/05/30 05:36:23;;;;;;;;;25.00;20.33;;;;;18.63;91.59;99622.88;6284013;20;3569012;-59
2023/05/30 05:38:52;;;;;;;;;19.67;19.33;;;;;19.21;88.58;99623.69;6284711;20;2839960;-59
2023/05/30 05:41:21;;;;;;;;;22.00;20.00;;;;;19.31;87.47;99619.06;6317017;20;2844075;-59
2023/05/30 05:43:50;;;;;;;;;19.00;19.00;;;;;19.35;85.30;99620.44;6287495;20;2844039;-60
2023/05/30 05:46:18;;;;;;;;;19.33;18.00;;;;;18.85;86.63;99618.13;6317669;20;3577469;-59
2023/05/30 05:48:46;;;;;;;;;19.00;16.67;;;;;18.95;87.36;99627.09;6287677;20;3561804;-58
2023/05/30 05:51:14;;;;;;;;;24.50;21.50;;;;;19.10;87.61;99630.19;6285095;20;2838919;-60
2023/05/30 05:53:43;;;;;;;;;20.50;19.00;;;;;19.09;87.04;99631.22;6286211;20;2833746;-59
2023/05/30 05:56:11;;;;;;;;;19.00;19.00;;;;;19.14;85.91;99628.03;6287328;20;3577359;-57
2023/05/30 05:58:39;;;;;;;;;18.00;17.00;;;;;19.09;87.24;99628.50;6280389;20;2838888;-60
2023/05/30 06:01:07;;;;;;;;;19.50;17.00;;;;;19.70;84.55;99629.75;6284427;20;2833669;-60
2023/05/30 06:03:35;;;;;;;;;16.33;16.33;;;;;20.32;81.20;99636.06;6287948;20;3555636;-60
2023/05/30 06:06:05;;;;;;;;;19.00;19.00;;;;;20.64;79.18;99636.50;6318860;20;3576287;-58
2023/05/30 06:08:35;;;;;;;;;19.00;16.67;;;;;20.75;78.27;99637.13;6290001;20;3569054;-61
2023/05/30 06:11:03;;;;;;;;;17.67;15.67;;;;;20.81;77.60;99639.19;6286320;20;3561803;-57
2023/05/30 06:13:31;;;;;;;;;19.00;16.00;;;;;20.66;73.34;99638.06;6316151;20;2825470;-60
2023/05/30 06:16:00;;;;;;;;;37.33;32.00;;;;;20.68;72.72;99630.56;6288237;20;3612826;-60
2023/05/30 06:18:31;;;;;;;;;158.00;154.38;;;;;20.70;74.42;99633.16;6279087;20;3702388;-59
2023/05/30 06:20:59;;;;;;;;;53.00;43.33;;;;;20.88;69.80;99644.88;6286057;20;3595031;-60
2023/05/30 06:23:31;;;;;;;;;147.13;117.75;;;;;20.75;70.87;99642.56;6277149;20;3729441;-60
2023/05/30 06:26:00;;;;;;;;;95.33;71.00;;;;;20.61;71.96;99643.13;6287330;20;3687757;-59
2023/05/30 06:28:32;;;;;;;;;160.00;113.33;;;;;20.63;71.10;99645.72;6312373;20;3702856;-60
2023/05/30 06:31:00;;;;;;;;;76.67;56.00;;;;;20.77;73.01;99645.13;6314249;20;1929735;-59
2023/05/30 06:33:28;;;;;;;;;45.67;36.67;;;;;20.80;71.37;99659.31;6317340;20;3598271;-59
2023/05/30 06:35:56;;;;;;;;;45.67;38.67;;;;;21.01;72.97;99652.59;6283489;20;3599372;-60
2023/05/30 06:38:25;;;;;;;;;17.33;16.00;;;;;21.73;66.89;99652.25;6287760;20;3557553;-60
2023/05/30 06:40:53;;;;;;;;;17.33;15.67;;;;;21.64;64.53;99657.69;6321573;20;3562178;-55
2023/05/30 06:43:22;;;;;;;;;16.00;12.67;;;;;22.43;63.07;99658.13;6318489;20;3532552;-60
2023/05/30 06:45:50;;;;;;;;;17.00;14.00;;;;;22.79;60.96;99661.34;6315824;20;2487742;-57
2023/05/30 06:48:18;;;;;;;;;17.33;16.00;;;;;22.20;62.16;99665.34;6318967;20;3566993;-57
2023/05/30 06:50:46;;;;;;;;;14.33;13.00;;;;;23.06;60.01;99664.72;6286790;20;2794098;-57
2023/05/30 06:53:16;;;;;;;;;15.00;13.67;;;;;23.54;58.48;99664.72;6314630;20;3528483;-58
2023/05/30 06:55:44;;;;;;;;;18.67;14.67;;;;;23.65;57.08;99672.56;6301006;20;3556746;-59
2023/05/30 06:58:13;;;;;;;;;17.00;15.33;;;;;23.62;57.15;99667.44;6317260;20;3552469;-56
2023/05/30 07:00:41;;;;;;;;;14.00;13.50;;;;;23.38;54.20;99665.66;6309317;20;2805534;-55
2023/05/30 07:03:09;;;;;;;;;13.00;13.00;;;;;24.19;51.68;99669.84;6285354;20;3527279;-57
2023/05/30 07:05:38;;;;;;;;;12.33;11.67;;;;;23.72;52.29;99664.50;6315609;20;3513821;-54
2023/05/30 07:08:07;;;;;;;;;41.67;34.67;;;;;22.79;52.55;99665.97;6313818;20;2856556;-58
2023/05/30 07:10:35;;;;;;;;;17.00;15.33;;;;;23.38;53.45;99677.50;6318908;20;3556499;-57
2023/05/30 07:13:03;;;;;;;;;19.00;16.00;;;;;23.95;53.33;99667.28;6281622;20;2483606;-58
2023/05/30 07:15:31;;;;;;;;;19.33;18.00;;;;;23.14;51.90;99681.13;6319894;20;3550386;-55
2023/05/30 07:18:00;;;;;;;;;15.50;13.50;;;;;23.22;52.75;99674.78;6291944;20;2815008;-59
2023/05/30 07:20:28;;;;;;;;;13.33;13.33;;;;;22.82;53.72;99682.03;6287917;20;3537832;-57
2023/05/30 07:22:56;;;;;;;;;12.67;12.67;;;;;23.00;54.26;99682.72;6317461;20;3518109;-56
2023/05/30 07:25:24;;;;;;;;;14.00;13.67;;;;;22.87;55.16;99685.13;6311768;20;3529392;-52
2023/05/30 07:27:52;;;;;;;;;17.00;13.00;;;;;23.15;54.58;99682.88;6317604;20;3527358;-57
2023/05/30 07:30:21;;;;;;;;;16.00;14.00;;;;;23.11;55.92;99681.50;6310118;20;2804475;-55
2023/05/30 07:32:50;;;;;;;;;15.50;13.50;;;;;23.41;53.70;99688.09;6282493;20;2814875;-57
2023/05/30 07:35:19;;;;;;;;;16.50;15.50;;;;;23.44;53.99;99693.22;6281485;20;2813825;-57
2023/05/30 07:37:47;;;;;;;;;19.00;15.00;;;;;23.26;54.10;99699.97;6279496;20;2812839;-59
2023/05/30 07:40:17;;;;;;;;;13.00;12.33;;;;;22.88;54.92;99689.59;6280467;20;2487847;-58
2023/05/30 07:42:49;;;;;;;;;17.00;15.00;;;;;22.77;52.63;99695.41;6312429;20;2693059;-60
2023/05/30 07:45:19;;;;;;;;;15.33;13.67;;;;;22.40;51.61;99705.00;6313411;20;3530603;-59
2023/05/30 07:47:47;;;;;;;;;18.00;15.33;;;;;22.62;54.84;99694.38;6275280;20;3557583;-57
2023/05/30 07:50:16;;;;;;;;;13.00;12.67;;;;;22.62;54.38;99697.13;6271577;20;3532643;-57
2023/05/30 07:52:44;;;;;;;;;15.67;14.33;;;;;23.10;54.53;99704.44;6279161;20;2483712;-55
2023/05/30 07:55:13;;;;;;;;;14.67;13.67;;;;;23.36;54.37;99706.94;6302733;20;2484149;-59
2023/05/30 07:57:41;;;;;;;;;17.67;15.33;;;;;23.76;52.35;99710.56;6288551;20;3556670;-58
2023/05/30 08:00:10;;;;;;;;;18.00;15.00;;;;;23.84;52.17;99710.53;6245516;20;2823357;-58
2023/05/30 08:02:41;;;;;;;;;14.67;13.33;;;;;23.36;52.79;99706.94;6243131;20;3524445;-58
2023/05/30 08:05:10;;;;;;;;;17.00;14.33;;;;;24.60;51.23;99712.63;6251654;20;3546245;-58
2023/05/30 08:07:38;;;;;;;;;15.33;14.33;;;;;24.86;50.21;99714.97;6248701;20;2487958;-58
2023/05/30 08:10:07;;;;;;;;;12.33;11.00;;;;;26.02;48.00;99719.81;6276637;20;2483769;-58
2023/05/30 08:12:35;;;;;;;;;10.00;10.00;;;;;25.62;46.55;99722.06;6272238;20;2786908;-59
2023/05/30 08:15:04;;;;;;;;;12.00;11.00;;;;;25.61;48.79;99720.31;6279260;20;2779580;-59
2023/05/30 08:17:33;;;;;;;;;16.00;16.00;;;;;25.38;47.37;99711.34;6279464;20;2829687;-59
2023/05/30 08:20:03;;;;;;;;;13.67;12.33;;;;;25.45;48.63;99720.53;6252153;20;3516941;-59
2023/05/30 08:22:31;;;;;;;;;10.00;10.00;;;;;25.49;47.67;99721.88;6276112;20;3509644;-58
2023/05/30 08:25:00;;;;;;;;;15.67;13.67;;;;;26.41;47.42;99731.44;6309737;20;3544179;-60
2023/05/30 08:27:28;;;;;;;;;14.33;14.33;;;;;25.32;46.88;99721.19;6317775;20;3527496;-59
2023/05/30 08:29:56;;;;;;;;;12.33;12.33;;;;;25.39;48.39;99724.91;6311137;20;2487808;-59
2023/05/30 08:32:24;;;;;;;;;15.67;14.67;;;;;26.26;48.46;99731.53;6313876;20;2483582;-59
2023/05/30 08:34:52;;;;;;;;;12.33;12.33;;;;;25.72;47.80;99729.13;6313743;20;3520062;-58
2023/05/30 08:37:21;;;;;;;;;12.00;9.67;;;;;25.44;49.23;99724.34;6307222;20;3480687;-58
2023/05/30 08:39:49;;;;;;;;;14.33;13.33;;;;;25.28;48.77;99719.03;6309137;20;3540006;-59
2023/05/30 08:42:17;;;;;;;;;14.00;14.00;;;;;25.30;48.59;99722.41;6316550;20;3526418;-60
2023/05/30 08:44:45;;;;;;;;;13.33;13.33;;;;;25.14;48.88;99720.66;6312094;20;3537759;-58
2023/05/30 08:47:16;;;;;;;;;13.00;11.50;;;;;25.46;47.18;99725.00;6309282;20;2782628;-58
2023/05/30 08:49:47;;;;;;;;;12.33;12.33;;;;;25.68;47.23;99730.59;6307200;20;3539987;-58
2023/05/30 08:52:16;;;;;;;;;16.00;12.00;;;;;25.92;47.51;99723.94;6306827;20;2483641;-59
2023/05/30 08:55:07;;;;;;;;;16.00;15.67;;;;;25.93;46.54;99722.88;6306452;20;2485736;-59
2023/05/30 08:57:44;;;;;;;;;12.33;11.33;;;;;25.67;46.61;99726.94;6312426;20;2787830;-59
2023/05/30 09:00:15;;;;;;;;;13.67;11.67;;;;;25.25;47.46;99724.88;6308075;20;3520121;-58
2023/05/30 09:02:49;;;;;;;;;15.67;14.33;;;;;25.24;47.95;99724.03;6314927;20;3549245;-59
2023/05/30 09:05:18;;;;;;;;;11.33;11.33;;;;;25.09;51.20;99721.25;6313881;20;3518074;-58
2023/05/30 09:07:47;;;;;;;;;17.00;15.00;;;;;25.35;50.90;99725.47;6311561;20;2811894;-59
2023/05/30 09:10:16;;;;;;;;;13.33;13.00;;;;;25.89;52.04;99727.06;6277561;20;2483798;-58
2023/05/30 09:12:45;;;;;;;;;13.67;13.33;;;;;25.71;51.52;99728.28;6311451;20;3526452;-58
2023/05/30 09:15:13;;;;;;;;;15.00;12.00;;;;;25.38;51.87;99733.31;6316903;20;3520165;-59
2023/05/30 09:17:41;;;;;;;;;14.67;13.00;;;;;24.37;54.39;99731.81;6311540;20;3532661;-59
2023/05/30 09:20:18;;;;;;;;;13.33;13.33;;;;;24.88;54.52;99737.59;6307790;20;3537846;-58
2023/05/30 09:22:47;;;;;;;;;17.00;16.00;;;;;23.97;55.61;99733.78;6283243;20;3562828;-58
2023/05/30 09:25:15;;;;;;;;;15.50;14.50;;;;;24.41;55.94;99730.38;6280545;20;2813930;-58
2023/05/30 09:27:49;;;;;;;;;12.00;12.00;;;;;24.12;56.39;99742.06;6282591;20;2485669;-58
2023/05/30 09:30:18;;;;;;;;;13.50;11.50;;;;;24.22;54.77;99745.44;6304814;20;2796137;-58
2023/05/30 09:33:01;;;;;;;;;20.33;16.33;;;;;23.41;58.76;99747.53;6309167;20;3558675;-58
2023/05/30 09:35:30;;;;;;;;;21.00;20.67;;;;;23.59;58.54;99744.53;6316750;20;3572144;-58
2023/05/30 09:38:04;;;;;;;;;12.00;12.00;;;;;23.53;57.71;99745.25;6281418;20;2804486;-56
2023/05/30 09:40:32;;;;;;;;;17.00;16.50;;;;;23.59;58.71;99741.78;6281268;20;2833724;-56
2023/05/30 09:43:01;;;;;;;;;15.00;12.50;;;;;23.58;60.86;99748.31;6281457;20;2786972;-58
2023/05/30 09:45:29;;;;;;;;;17.50;16.00;;;;;23.73;60.37;99743.84;6308652;20;2825419;-58
2023/05/30 09:47:57;;;;;;;;;12.00;12.00;;;;;23.94;58.91;99754.19;6286354;20;2494038;-58
2023/05/30 09:50:26;;;;;;;;;16.33;13.00;;;;;23.75;59.09;99751.88;6315607;20;3548186;-58
2023/05/30 09:52:56;;;;;;;;;12.00;11.33;;;;;23.09;61.13;99753.91;6315075;20;3514857;-54
2023/05/30 09:55:26;;;;;;;;;15.33;12.67;;;;;23.22;61.49;99754.22;6314970;20;3528628;-58
2023/05/30 09:57:54;;;;;;;;;12.33;9.67;;;;;23.10;61.27;99752.91;6291154;20;2791094;-57
2023/05/30 10:00:25;;;;;;;;;13.33;12.00;;;;;23.02;61.47;99750.19;6313680;20;3522228;-55
2023/05/30 10:02:56;;;;;;;;;40.00;25.50;;;;;22.94;62.93;99749.13;6317064;20;3610268;-60
2023/05/30 10:05:30;;;;;;;;;50.13;33.50;;;;;22.90;62.91;99752.38;6330182;20;4386929;-56
2023/05/30 10:07:59;;;;;;;;;66.50;40.50;;;;;22.99;61.77;99759.59;6288119;20;4398186;-56
2023/05/30 10:10:27;;;;;;;;;16.33;13.00;;;;;22.79;61.60;99743.47;6309595;20;3534750;-56
2023/05/30 10:12:57;;;;;;;;;19.00;14.00;;;;;22.97;61.41;99746.06;6281918;20;2811759;-58
2023/05/30 10:15:25;;;;;;;;;14.00;13.50;;;;;22.85;62.31;99746.56;6291561;20;2681567;-58
2023/05/30 10:18:16;;;;;;;;;24.33;20.00;;;;;23.05;61.33;99752.56;6313018;20;3576308;-59
2023/05/30 10:20:45;;;;;;;;;22.67;17.33;;;;;22.93;61.91;99761.13;6286069;20;3581728;-58
2023/05/30 10:23:15;;;;;;;;;12.67;12.67;;;;;22.88;60.18;99744.34;6281432;20;2491929;-56
2023/05/30 10:25:49;;;;;;;;;17.00;15.00;;;;;23.11;61.30;99751.88;6313310;20;3545088;-57
2023/05/30 10:28:23;;;;;;;;;16.00;13.50;;;;;23.23;59.95;99751.31;6313332;20;2815088;-55
2023/05/30 10:30:52;;;;;;;;;15.33;14.33;;;;;23.16;59.91;99749.47;6280359;20;2492018;-57
2023/05/30 10:33:21;;;;;;;;;15.33;14.33;;;;;23.26;58.82;99744.66;6313090;20;3546141;-57
2023/05/30 10:36:10;;;;;;;;;13.67;13.00;;;;;23.69;56.47;99739.69;6280777;20;3529575;-58
2023/05/30 10:38:52;;;;;;;;;15.50;15.50;;;;;24.03;55.29;99731.16;6282337;20;2816948;-59
2023/05/30 10:41:34;;;;;;;;;14.33;13.67;;;;;24.08;56.49;99727.88;6280396;20;3533596;-58
2023/05/30 10:44:37;;;;;;;;;15.50;15.50;;;;;24.65;54.56;99730.25;6280529;20;2823310;-59
2023/05/30 10:47:46;;;;;;;;;18.00;14.00;;;;;24.32;55.03;99727.72;6281698;20;2831577;-58
2023/05/30 10:50:24;;;;;;;;;16.00;16.00;;;;;24.76;53.92;99720.72;6280978;20;2816952;-58
2023/05/30 10:52:56;;;;;;;;;21.00;16.00;;;;;24.68;52.93;99721.63;6283886;20;3557662;-59
2023/05/30 10:55:28;;;;;;;;;14.00;12.33;;;;;25.12;52.10;99726.38;6277469;20;3515957;-59
2023/05/30 10:57:56;;;;;;;;;16.00;15.00;;;;;24.85;52.29;99724.22;6280528;20;2487852;-61
2023/05/30 11:00:30;;;;;;;;;15.00;13.67;;;;;24.84;51.89;99726.13;6316060;20;3534779;-59
2023/05/30 11:02:58;;;;;;;;;14.00;14.00;;;;;24.82;51.50;99724.59;6309349;20;2802464;-56
2023/05/30 11:05:31;;;;;;;;;15.67;15.00;;;;;24.80;54.35;99727.53;6287902;20;3536721;-58
2023/05/30 11:08:01;;;;;;;;;12.33;12.33;;;;;24.67;50.78;99728.19;6316597;20;3539956;-58
2023/05/30 11:10:31;;;;;;;;;17.00;15.33;;;;;24.73;52.42;99729.31;6310698;20;2483780;-55
2023/05/30 11:13:11;;;;;;;;;14.33;13.67;;;;;25.23;52.13;99729.75;6315219;20;2492333;-58